createdAt,value
2022-11-04T00:01:56.342Z,61.10
2022-11-04T00:04:26.568Z,60.89
2022-11-04T00:06:56.361Z,61.31
2022-11-04T00:09:27.905Z,61.09
2022-11-04T00:12:14.139Z,61.25
2022-11-04T00:14:42.936Z,61.46
2022-11-04T00:17:23.311Z,61.46
2022-11-04T00:20:11.527Z,61.61
2022-11-04T00:22:58.732Z,61.73
2022-11-04T00:25:44.901Z,61.80
2022-11-04T00:28:33.715Z,62.03
2022-11-04T00:31:29.426Z,62.21
2022-11-04T00:34:14.954Z,61.94
2022-11-04T00:36:43.743Z,61.71
2022-11-04T00:39:27.720Z,61.60
2022-11-04T00:42:10.725Z,61.43
2022-11-04T00:45:08.541Z,61.83
2022-11-04T00:47:43.106Z,61.20
2022-11-04T00:58:22.086Z,61.38
2022-11-04T02:34:28.410Z,60.61
2022-11-04T02:37:05.557Z,60.64
2022-11-04T02:39:39.875Z,60.55
2022-11-04T02:44:59.514Z,60.27
2022-11-04T02:47:41.385Z,60.68
2022-11-04T02:50:29.022Z,60.33
2022-11-04T02:55:37.550Z,60.36
2022-11-04T03:04:05.150Z,60.21
2022-11-04T03:12:12.677Z,60.31
2022-11-04T03:14:46.693Z,60.05
2022-11-04T03:17:20.244Z,60.02
2022-11-04T03:45:35.625Z,59.90
2022-11-04T03:51:22.761Z,59.98
2022-11-04T03:53:56.055Z,60.12
2022-11-04T03:57:02.478Z,59.96
2022-11-04T04:02:36.563Z,59.99
2022-11-04T04:08:28.983Z,59.96
2022-11-04T04:11:12.627Z,59.83
2022-11-04T06:14:27.628Z,58.38
2022-11-04T06:17:31.118Z,58.14
2022-11-04T06:20:46.551Z,58.45
2022-11-04T06:34:31.738Z,59.03
2022-11-04T06:37:01.094Z,58.68
2022-11-04T06:39:39.896Z,58.91
2022-11-04T06:42:33.897Z,59.14
2022-11-04T06:57:01.580Z,59.34
2022-11-04T06:59:33.664Z,59.12
2022-11-04T07:02:06.265Z,59.26
2022-11-04T07:04:35.471Z,58.61
2022-11-04T07:07:05.084Z,59.20
2022-11-04T07:09:34.396Z,58.87
2022-11-04T07:12:04.291Z,58.82
2022-11-04T07:14:54.009Z,59.04
2022-11-04T07:17:22.143Z,58.97
2022-11-04T07:19:50.951Z,59.02
2022-11-04T07:22:19.521Z,58.89
2022-11-04T07:27:33.857Z,58.22
2022-11-04T07:30:02.085Z,58.60
2022-11-04T07:32:30.576Z,58.71
2022-11-04T07:34:58.738Z,58.48
2022-11-04T07:37:27.714Z,58.86
2022-11-04T07:39:55.719Z,58.87
2022-11-04T07:42:24.584Z,58.91
2022-11-04T07:44:53.946Z,59.22
2022-11-04T07:47:22.428Z,59.45
2022-11-04T07:49:52.374Z,59.14
2022-11-04T07:52:21.380Z,59.14
2022-11-04T07:54:49.416Z,59.39
2022-11-04T07:57:20.170Z,59.13
2022-11-04T07:59:48.887Z,59.16
2022-11-04T08:02:23.919Z,59.19
2022-11-04T08:04:53.844Z,58.83
2022-11-04T08:07:22.021Z,58.91
2022-11-04T08:09:50.272Z,59.17
2022-11-04T08:12:18.220Z,58.70
2022-11-04T08:17:46.121Z,58.67
2022-11-04T08:20:14.469Z,58.73
2022-11-04T08:22:42.491Z,58.34
2022-11-04T08:25:14.179Z,58.74
2022-11-04T08:27:43.136Z,58.54
2022-11-04T08:30:12.299Z,58.58
2022-11-04T08:32:40.380Z,58.82
2022-11-04T08:35:10.652Z,58.64
2022-11-04T08:37:39.274Z,59.53
2022-11-04T08:40:08.844Z,59.00
2022-11-04T08:42:37.057Z,58.84
2022-11-04T08:45:05.849Z,58.92
2022-11-04T08:47:34.118Z,58.88
2022-11-04T08:50:02.241Z,58.65
2022-11-04T08:52:31.826Z,58.36
2022-11-04T08:55:00.076Z,58.63
2022-11-04T08:57:28.617Z,58.32
2022-11-04T08:59:56.853Z,57.95
2022-11-04T09:02:26.928Z,58.01
2022-11-04T09:04:56.459Z,57.76
2022-11-04T09:07:24.732Z,57.79
2022-11-04T09:09:54.337Z,57.63
2022-11-04T09:15:09.420Z,57.20
2022-11-04T09:17:37.725Z,56.88
2022-11-04T09:20:07.414Z,56.33
2022-11-04T09:22:36.296Z,56.61
2022-11-04T09:25:06.990Z,56.26
2022-11-04T09:27:35.108Z,56.06
2022-11-04T09:30:03.503Z,55.78
2022-11-04T09:32:31.678Z,55.22
2022-11-04T09:35:02.927Z,54.69
2022-11-04T09:37:32.951Z,54.84
2022-11-04T09:40:01.307Z,54.80
2022-11-04T09:42:41.981Z,55.04
2022-11-04T09:45:23.999Z,54.67
2022-11-04T09:47:56.860Z,54.78
2022-11-04T09:50:27.170Z,54.28
2022-11-04T09:52:59.647Z,53.80
2022-11-04T09:55:32.584Z,53.89
2022-11-04T09:58:02.298Z,53.95
2022-11-04T10:00:33.924Z,53.60
2022-11-04T10:03:16.706Z,53.19
2022-11-04T10:05:58.003Z,52.10
2022-11-04T10:08:44.815Z,52.54
2022-11-04T10:11:23.405Z,52.37
2022-11-04T10:14:13.449Z,52.11
2022-11-04T10:16:53.623Z,51.85
2022-11-04T10:19:39.711Z,51.84
2022-11-04T10:22:16.674Z,51.71
2022-11-04T10:24:55.374Z,52.13
2022-11-04T10:27:28.798Z,52.42
2022-11-04T10:30:02.762Z,51.49
2022-11-04T10:32:36.906Z,51.75
2022-11-04T10:35:15.692Z,50.81
2022-11-04T10:37:44.429Z,50.85
2022-11-04T10:40:22.185Z,50.39
2022-11-04T10:42:52.432Z,50.34
2022-11-04T10:45:26.588Z,49.72
2022-11-04T10:48:00.440Z,50.07
2022-11-04T10:50:40.847Z,49.98
2022-11-04T10:53:17.626Z,50.12
2022-11-04T10:55:56.398Z,49.68
2022-11-04T10:58:28.978Z,49.10
2022-11-04T11:01:37.288Z,49.42
2022-11-04T11:04:10.255Z,49.79
2022-11-04T11:06:38.938Z,49.80
2022-11-04T11:09:15.507Z,49.61
2022-11-04T11:11:47.758Z,49.00
2022-11-04T11:14:22.239Z,49.56
2022-11-04T11:16:52.832Z,49.92
2022-11-04T11:19:22.498Z,49.19
2022-11-04T11:21:53.025Z,49.39
2022-11-04T11:24:26.067Z,49.67
2022-11-04T11:26:56.733Z,49.28
2022-11-04T11:29:27.281Z,49.40
2022-11-04T11:32:26.453Z,48.86
2022-11-04T11:34:54.795Z,49.44
2022-11-04T11:37:27.108Z,48.16
2022-11-04T11:39:55.202Z,48.52
2022-11-04T11:42:25.672Z,48.19
2022-11-04T11:44:57.967Z,48.05
2022-11-04T11:47:42.180Z,48.36
2022-11-04T11:50:17.379Z,47.61
2022-11-04T11:52:46.510Z,47.93
2022-11-04T11:55:20.471Z,47.83
2022-11-04T12:01:03.126Z,48.13
2022-11-04T12:09:44.036Z,48.36
2022-11-04T12:12:24.332Z,47.36
2022-11-04T12:15:10.038Z,47.68
2022-11-04T12:17:48.761Z,47.98
2022-11-04T12:20:43.568Z,48.35
2022-11-04T12:23:27.273Z,47.07
2022-11-04T12:26:11.250Z,47.62
2022-11-04T12:28:53.928Z,47.82
2022-11-04T12:31:32.515Z,47.10
2022-11-04T12:34:11.144Z,46.28
2022-11-04T12:37:12.243Z,46.47
2022-11-04T12:39:57.906Z,46.46
2022-11-04T12:42:41.737Z,46.99
2022-11-04T12:45:43.504Z,46.13
2022-11-04T12:48:21.805Z,46.47
2022-11-04T12:51:07.198Z,46.29
2022-11-04T12:54:06.763Z,46.59
2022-11-04T12:56:42.254Z,46.78
2022-11-04T12:59:32.505Z,46.57
2022-11-04T13:02:07.268Z,46.83
2022-11-04T13:04:43.213Z,47.05
2022-11-04T13:07:18.225Z,47.38
2022-11-04T13:09:54.310Z,46.68
2022-11-04T13:12:25.609Z,45.74
2022-11-04T13:14:56.942Z,45.39
2022-11-04T13:17:30.909Z,45.83
2022-11-04T13:20:06.699Z,45.13
2022-11-04T13:22:42.082Z,45.52
2022-11-04T13:29:11.680Z,44.43
2022-11-04T13:31:53.840Z,44.51
2022-11-04T13:34:38.298Z,44.73
2022-11-04T13:37:15.564Z,44.57
2022-11-04T13:58:18.132Z,46.04
2022-11-04T14:07:09.126Z,45.93
2022-11-04T14:10:01.154Z,45.20
2022-11-04T14:16:06.813Z,45.70
2022-11-04T14:18:37.558Z,45.30
2022-11-04T14:21:38.298Z,45.65
2022-11-04T14:24:25.316Z,46.02
2022-11-04T14:29:38.558Z,44.65
2022-11-04T14:32:14.856Z,43.51
2022-11-04T14:34:54.407Z,42.00
2022-11-04T14:37:55.639Z,41.06
2022-11-04T14:41:26.978Z,39.63
2022-11-04T14:47:05.818Z,40.20
2022-11-04T14:52:49.462Z,41.01
2022-11-04T15:24:28.499Z,42.36
2022-11-04T15:43:00.574Z,41.44
2022-11-04T16:00:32.032Z,43.18
2022-11-04T16:09:19.927Z,43.82
2022-11-04T16:22:35.637Z,43.76
2022-11-04T16:45:36.166Z,43.24
2022-11-04T16:48:06.798Z,42.91
2022-11-04T16:50:35.330Z,43.07
2022-11-04T17:02:27.589Z,43.11
2022-11-04T17:05:04.048Z,43.35
2022-11-04T17:27:00.451Z,43.97
2022-11-04T17:52:48.991Z,44.29
2022-11-04T19:08:35.336Z,45.07
2022-11-04T19:11:10.445Z,44.97
2022-11-04T19:13:47.066Z,44.77
2022-11-04T19:27:27.972Z,45.05
2022-11-04T19:30:15.412Z,45.30
2022-11-04T19:39:03.509Z,45.56
2022-11-04T19:41:51.493Z,45.37
2022-11-04T19:44:23.061Z,45.80
2022-11-04T19:46:52.770Z,45.76
2022-11-04T19:49:21.376Z,45.59
2022-11-04T19:51:49.821Z,45.80
2022-11-04T19:54:19.290Z,46.17
2022-11-04T19:56:49.037Z,45.97
2022-11-04T19:59:19.111Z,45.81
2022-11-04T20:01:48.233Z,46.20
2022-11-04T20:04:17.260Z,46.13
2022-11-04T20:06:45.918Z,46.72
2022-11-04T20:09:15.027Z,46.46
2022-11-04T20:12:03.651Z,46.54
2022-11-04T20:14:35.123Z,46.74
2022-11-04T20:20:08.965Z,46.71
2022-11-04T20:43:09.680Z,47.51
2022-11-04T20:45:52.112Z,47.23
2022-11-04T20:48:40.110Z,47.64
2022-11-04T20:51:51.662Z,47.42
2022-11-04T21:03:09.301Z,47.55
2022-11-04T21:05:45.791Z,47.72
2022-11-04T21:08:14.852Z,47.66
2022-11-04T21:10:43.872Z,47.46
2022-11-04T21:13:45.734Z,47.59
2022-11-04T21:16:16.759Z,48.04
2022-11-04T21:18:47.854Z,47.74
2022-11-04T21:21:17.453Z,47.69
2022-11-04T21:23:47.627Z,47.73
2022-11-04T21:26:34.922Z,48.01
2022-11-04T21:29:06.088Z,47.95
2022-11-04T21:31:37.186Z,47.94
2022-11-04T21:34:37.040Z,47.99
2022-11-04T21:37:05.377Z,47.72
2022-11-04T21:39:34.902Z,48.06
2022-11-04T21:42:07.258Z,48.13
2022-11-04T21:44:37.258Z,47.71
2022-11-04T21:47:07.688Z,47.43
2022-11-04T21:49:40.111Z,48.09
2022-11-04T21:52:08.337Z,48.02
2022-11-04T21:54:37.779Z,48.16
2022-11-04T21:57:09.397Z,48.24
2022-11-04T21:59:40.796Z,48.44
2022-11-04T22:02:13.238Z,48.59
2022-11-04T22:04:43.083Z,48.75
2022-11-04T22:07:12.874Z,48.94
2022-11-04T22:10:01.342Z,49.05
2022-11-04T22:12:31.971Z,49.32
2022-11-04T22:15:01.534Z,49.35
2022-11-04T22:17:30.068Z,49.50
2022-11-04T22:20:00.391Z,49.60
2022-11-04T22:22:28.656Z,49.73
2022-11-04T22:25:03.369Z,49.68
2022-11-04T22:27:32.276Z,49.65
2022-11-04T22:30:00.929Z,49.94
2022-11-04T22:32:30.172Z,49.78
2022-11-04T22:35:00.693Z,50.12
2022-11-04T22:37:31.415Z,50.21
2022-11-04T22:40:00.294Z,50.43
2022-11-04T22:42:29.769Z,50.38
2022-11-04T22:45:01.355Z,50.23
2022-11-04T22:47:32.848Z,50.39
2022-11-04T22:50:02.850Z,50.45
2022-11-04T22:52:31.730Z,50.31
2022-11-04T22:55:00.831Z,50.69
2022-11-04T22:57:29.145Z,50.65
2022-11-04T22:59:57.736Z,50.81
2022-11-04T23:02:27.500Z,50.91
2022-11-04T23:04:57.214Z,50.85
2022-11-04T23:07:27.179Z,50.81
2022-11-04T23:10:13.025Z,51.11
2022-11-04T23:12:58.459Z,51.20
2022-11-04T23:15:43.724Z,51.31
2022-11-04T23:18:30.672Z,51.35
2022-11-04T23:21:15.903Z,51.50
2022-11-04T23:24:03.171Z,51.37
2022-11-04T23:26:32.697Z,51.38
2022-11-04T23:29:18.415Z,51.54
2022-11-04T23:31:46.546Z,51.45
2022-11-04T23:34:32.008Z,51.41
2022-11-04T23:37:15.086Z,51.64
2022-11-04T23:39:46.542Z,51.76
2022-11-04T23:42:17.697Z,51.83
2022-11-04T23:45:08.790Z,51.76
2022-11-04T23:47:56.926Z,51.67
2022-11-04T23:50:44.333Z,52.31
2022-11-04T23:53:31.608Z,51.90
2022-11-04T23:56:19.462Z,52.05
2022-11-04T23:59:04.999Z,52.34
